Time;durP1;ratioP1;P1;durP2;ratioP2;P2;SDS_P1;SDS_P2;PMS_P1;PMS_P2;Temp;Humidity;BMP_temperature;BMP_pressure;BME280_temperature;BME280_humidity;BME280_pressure;Samples;Min_cycle;Max_cycle;Signal;HPM_P1;HPM_P2
2022/04/02 00:00:28;;;;;;;6.70;4.40;;;7.10;65.80;;;;;;5088111;28;20024;-85
2022/04/02 00:02:55;;;;;;;6.57;4.47;;;7.10;66.30;;;;;;5089644;28;20378;-85
2022/04/02 00:05:21;;;;;;;6.68;4.90;;;7.10;66.20;;;;;;5089382;28;20374;-85
2022/04/02 00:07:47;;;;;;;6.50;4.20;;;6.90;66.50;;;;;;5088257;28;20035;-85
2022/04/02 00:10:12;;;;;;;6.57;4.38;;;7.00;66.90;;;;;;5087661;28;20032;-85
2022/04/02 00:12:39;;;;;;;6.53;4.07;;;7.00;67.40;;;;;;5090830;28;20054;-84
2022/04/02 00:15:05;;;;;;;5.70;4.05;;;7.00;67.30;;;;;;5087867;28;20040;-84
2022/04/02 00:17:33;;;;;;;5.93;4.20;;;7.00;67.10;;;;;;5090400;28;20031;-85
2022/04/02 00:19:59;;;;;;;5.95;4.47;;;7.10;66.80;;;;;;5089834;28;20028;-85
2022/04/02 00:22:24;;;;;;;6.25;4.43;;;7.10;67.40;;;;;;5088079;28;20024;-84
2022/04/02 00:24:50;;;;;;;5.85;4.20;;;7.10;68.10;;;;;;5087869;28;20055;-84
2022/04/02 00:27:16;;;;;;;6.57;4.60;;;7.00;67.80;;;;;;5089533;28;20017;-84
2022/04/02 00:29:42;;;;;;;6.30;4.47;;;7.00;67.80;;;;;;5075990;28;20039;-83
2022/04/02 00:32:08;;;;;;;6.07;4.18;;;7.10;67.70;;;;;;5093496;28;20441;-84
2022/04/02 00:34:34;;;;;;;6.13;3.92;;;7.10;67.80;;;;;;5091453;28;20044;-83
2022/04/02 00:37:00;;;;;;;5.38;4.03;;;7.00;67.00;;;;;;5091930;28;20023;-84
2022/04/02 00:39:26;;;;;;;6.35;4.40;;;7.10;67.00;;;;;;5091555;28;20093;-84
2022/04/02 00:41:52;;;;;;;5.97;4.00;;;7.20;67.60;;;;;;5093016;28;20024;-84
2022/04/02 00:44:17;;;;;;;6.32;4.10;;;7.10;66.60;;;;;;5094881;28;20020;-84
2022/04/02 00:46:44;;;;;;;5.40;4.20;;;7.10;67.10;;;;;;5091675;28;20133;-85
2022/04/02 00:49:12;;;;;;;5.82;4.25;;;7.10;67.30;;;;;;5091118;28;20516;-85
2022/04/02 00:51:41;;;;;;;5.38;4.25;;;7.20;67.00;;;;;;5091279;28;20531;-84
2022/04/02 00:54:15;;;;;;;5.90;4.28;;;7.20;66.90;;;;;;5091327;28;20115;-84
2022/04/02 00:56:42;;;;;;;6.85;4.30;;;7.20;66.60;;;;;;5093628;28;20032;-84
2022/04/02 00:59:08;;;;;;;6.22;4.40;;;7.20;66.20;;;;;;5092683;28;20489;-84
2022/04/02 01:01:37;;;;;;;6.20;4.70;;;7.20;66.40;;;;;;5091044;28;20070;-85
2022/04/02 01:04:04;;;;;;;7.25;4.72;;;7.30;66.60;;;;;;5091087;28;20123;-84
2022/04/02 01:06:31;;;;;;;6.43;4.45;;;7.30;65.40;;;;;;5072856;28;20389;-83
2022/04/02 01:08:58;;;;;;;6.60;4.70;;;7.30;65.30;;;;;;5091354;28;20032;-85
2022/04/02 01:11:38;;;;;;;6.63;4.75;;;7.20;65.00;;;;;;5090407;28;20501;-86
2022/04/02 01:14:04;;;;;;;7.25;4.80;;;7.30;65.10;;;;;;5093628;28;20044;-85
2022/04/02 01:16:32;;;;;;;5.35;4.10;;;7.40;65.80;;;;;;5090811;28;20043;-85
2022/04/02 01:18:58;;;;;;;6.72;4.38;;;7.40;65.50;;;;;;5090942;28;20027;-85
2022/04/02 01:21:25;;;;;;;7.03;4.97;;;7.40;65.30;;;;;;5092270;28;20160;-85
2022/04/02 01:23:51;;;;;;;7.65;5.00;;;7.30;65.10;;;;;;5073587;28;20017;-84
2022/04/02 01:26:19;;;;;;;6.38;4.65;;;7.30;64.80;;;;;;5093227;28;20027;-84
2022/04/02 01:28:53;;;;;;;6.65;4.65;;;7.30;64.80;;;;;;5090635;28;20055;-85
2022/04/02 01:31:21;;;;;;;6.88;4.88;;;7.40;65.30;;;;;;5090482;28;20043;-85
2022/04/02 01:33:50;;;;;;;6.38;4.90;;;7.30;65.00;;;;;;5090546;28;20465;-85
2022/04/02 01:36:16;;;;;;;7.28;5.28;;;7.40;65.20;;;;;;5090926;28;20550;-85
2022/04/02 01:38:43;;;;;;;8.00;5.38;;;7.40;64.90;;;;;;5092761;28;20100;-86
2022/04/02 01:41:08;;;;;;;7.57;4.85;;;7.40;65.20;;;;;;5092103;28;20463;-85
2022/04/02 01:43:35;;;;;;;6.57;4.63;;;7.40;65.00;;;;;;5072267;28;20141;-85
2022/04/02 01:46:02;;;;;;;6.28;4.70;;;7.40;65.40;;;;;;5071749;28;20086;-84
2022/04/02 01:48:27;;;;;;;6.10;4.18;;;7.40;65.00;;;;;;5090626;28;20032;-84
2022/04/02 01:50:53;;;;;;;7.25;4.80;;;7.40;64.60;;;;;;5090928;28;20090;-84
2022/04/02 01:53:20;;;;;;;7.07;4.80;;;7.40;65.20;;;;;;5093121;28;20105;-84
2022/04/02 01:55:47;;;;;;;5.93;4.18;;;7.50;65.00;;;;;;5089864;28;20036;-83
2022/04/02 01:58:13;;;;;;;5.32;3.88;;;7.40;64.70;;;;;;5105526;28;20039;-84
2022/04/02 02:00:40;;;;;;;5.90;3.88;;;7.40;65.10;;;;;;5091169;28;20570;-84
2022/04/02 02:03:06;;;;;;;6.45;4.32;;;7.30;64.50;;;;;;5106219;28;20032;-84
2022/04/02 02:05:36;;;;;;;6.63;4.07;;;7.40;65.00;;;;;;5092586;28;20024;-84
2022/04/02 02:08:03;;;;;;;5.90;3.90;;;7.40;65.00;;;;;;5092338;28;20111;-83
2022/04/02 02:10:29;;;;;;;5.45;3.95;;;7.30;64.50;;;;;;5090196;28;20110;-84
2022/04/02 02:12:55;;;;;;;5.60;3.85;;;7.30;64.50;;;;;;5090105;28;20089;-85
2022/04/02 02:15:22;;;;;;;5.40;4.07;;;7.40;65.20;;;;;;5089477;28;20331;-85
2022/04/02 02:17:48;;;;;;;6.22;3.72;;;7.40;64.70;;;;;;5091288;28;20032;-85
2022/04/02 02:20:16;;;;;;;7.60;5.35;;;7.30;65.00;;;;;;5091637;28;20039;-86
2022/04/02 02:22:43;;;;;;;5.55;4.10;;;7.40;65.40;;;;;;5089953;28;20098;-84
2022/04/02 02:25:11;;;;;;;5.65;3.90;;;7.30;64.60;;;;;;5089800;28;20045;-85
2022/04/02 02:27:38;;;;;;;6.03;3.75;;;7.30;65.20;;;;;;5089422;28;20031;-85
2022/04/02 02:30:05;;;;;;;5.63;4.00;;;7.40;65.50;;;;;;5071091;28;20025;-84
2022/04/02 02:32:36;;;;;;;6.72;4.35;;;7.30;65.20;;;;;;5092580;28;20024;-83
2022/04/02 02:37:48;;;;;;;5.82;3.90;;;7.30;65.70;;;;;;5089475;28;20084;-84
2022/04/02 02:40:13;;;;;;;5.65;3.58;;;7.30;65.70;;;;;;5089244;28;20042;-83
2022/04/02 02:42:39;;;;;;;5.55;3.85;;;7.20;65.40;;;;;;5089101;28;20039;-84
2022/04/02 02:45:06;;;;;;;5.57;3.88;;;7.20;65.60;;;;;;5089224;28;20032;-84
2022/04/02 02:47:31;;;;;;;5.40;3.83;;;7.20;65.90;;;;;;5092334;28;20053;-84
2022/04/02 02:49:58;;;;;;;6.07;3.83;;;7.10;65.30;;;;;;5088897;28;20122;-84
2022/04/02 02:52:23;;;;;;;6.32;4.30;;;7.20;65.80;;;;;;5089663;28;20039;-84
2022/04/02 02:54:49;;;;;;;5.97;4.30;;;7.10;66.00;;;;;;5088811;28;20036;-82
2022/04/02 02:57:15;;;;;;;6.28;4.10;;;7.10;65.90;;;;;;5088964;28;20028;-84
2022/04/02 02:59:40;;;;;;;5.82;4.10;;;7.10;65.90;;;;;;5091430;28;20031;-83
2022/04/02 03:02:06;;;;;;;6.20;4.22;;;7.10;66.10;;;;;;5089861;28;20086;-83
2022/04/02 03:04:32;;;;;;;5.20;3.45;;;7.00;65.90;;;;;;5088810;28;20024;-85
2022/04/02 03:06:58;;;;;;;5.80;4.10;;;7.10;66.60;;;;;;5089015;28;20116;-84
2022/04/02 03:09:24;;;;;;;5.88;4.00;;;7.10;66.10;;;;;;5088973;28;20503;-84
2022/04/02 03:11:50;;;;;;;5.68;3.85;;;7.00;66.30;;;;;;5090246;28;20024;-84
2022/04/02 03:14:19;;;;;;;7.22;4.00;;;6.90;66.20;;;;;;5090644;28;20037;-84
2022/04/02 03:16:44;;;;;;;5.55;3.72;;;6.90;66.30;;;;;;5088560;28;20063;-84
2022/04/02 03:19:11;;;;;;;6.38;3.80;;;6.90;66.60;;;;;;5090875;28;20044;-83
2022/04/02 03:21:37;;;;;;;7.43;4.60;;;6.90;66.80;;;;;;5088880;28;20124;-84
2022/04/02 03:24:03;;;;;;;6.78;4.10;;;7.00;66.80;;;;;;5088622;28;20504;-84
2022/04/02 03:26:29;;;;;;;5.93;4.00;;;6.90;66.70;;;;;;5091740;28;20028;-83
2022/04/02 03:28:54;;;;;;;5.43;3.83;;;6.90;66.90;;;;;;5088589;28;20404;-84
2022/04/02 03:31:22;;;;;;;5.55;3.78;;;6.90;66.60;;;;;;5088543;28;20032;-84
2022/04/02 03:33:48;;;;;;;5.82;4.03;;;6.90;67.10;;;;;;5088222;28;20030;-84
2022/04/02 03:36:14;;;;;;;5.93;4.00;;;7.00;67.20;;;;;;5088637;28;20409;-84
2022/04/02 03:38:40;;;;;;;5.47;3.88;;;6.90;67.10;;;;;;5090991;28;20036;-83
2022/04/02 03:41:06;;;;;;;5.25;3.63;;;6.90;66.70;;;;;;5088424;28;20074;-84
2022/04/02 03:43:32;;;;;;;5.72;3.83;;;6.90;66.40;;;;;;5088256;28;20028;-84
2022/04/02 03:47:08;;;;;;;5.82;3.65;;;6.90;66.40;;;;;;5088059;28;20028;-84
2022/04/02 03:48:44;;;;;;;4.50;3.35;;;6.90;66.90;;;;;;5088093;28;20031;-84
2022/04/02 03:51:10;;;;;;;6.18;3.95;;;6.90;67.20;;;;;;5088579;28;20094;-83
2022/04/02 03:53:36;;;;;;;5.28;3.65;;;6.80;67.00;;;;;;5090685;28;20081;-84
2022/04/02 03:56:03;;;;;;;5.63;3.85;;;6.80;67.60;;;;;;5089044;28;20035;-84
2022/04/02 03:58:31;;;;;;;4.93;3.47;;;6.80;67.30;;;;;;5087729;28;20489;-83
2022/04/02 04:00:57;;;;;;;5.72;3.85;;;6.70;66.80;;;;;;5088718;28;20054;-84
2022/04/02 04:03:23;;;;;;;5.60;3.70;;;6.80;67.10;;;;;;5091873;28;20031;-83
2022/04/02 04:05:49;;;;;;;5.35;3.33;;;6.80;67.10;;;;;;5093757;28;20032;-84
2022/04/02 04:08:14;;;;;;;5.43;3.13;;;6.80;67.20;;;;;;5094389;28;20484;-83
2022/04/02 04:10:41;;;;;;;5.53;3.72;;;6.70;66.60;;;;;;5092640;28;20119;-83
2022/04/02 04:13:07;;;;;;;4.97;3.65;;;6.60;66.80;;;;;;5091968;28;20553;-84
2022/04/02 04:15:33;;;;;;;4.80;3.47;;;6.70;67.20;;;;;;5091849;28;20044;-83
2022/04/02 04:17:59;;;;;;;5.05;3.42;;;6.60;66.90;;;;;;5092576;28;20024;-84
2022/04/02 04:20:25;;;;;;;5.00;3.50;;;6.60;67.10;;;;;;5072959;28;20458;-84
2022/04/02 04:22:52;;;;;;;5.07;3.65;;;6.60;67.00;;;;;;5092273;28;20024;-84
2022/04/02 04:25:17;;;;;;;4.70;3.25;;;6.60;66.90;;;;;;5091311;28;20058;-84
2022/04/02 04:27:43;;;;;;;5.35;3.50;;;6.60;66.70;;;;;;5091854;28;20020;-85
2022/04/02 04:30:10;;;;;;;5.70;3.50;;;6.60;66.90;;;;;;5092049;28;20621;-85
2022/04/02 04:32:36;;;;;;;5.20;3.60;;;6.60;66.40;;;;;;5094315;28;20061;-84
2022/04/02 04:35:02;;;;;;;5.18;3.60;;;6.60;66.30;;;;;;5092758;28;20473;-84
2022/04/02 04:37:28;;;;;;;5.28;3.50;;;6.60;66.40;;;;;;5093235;28;20064;-84
2022/04/02 04:39:53;;;;;;;5.50;3.55;;;6.60;66.30;;;;;;5073294;28;20508;-84
2022/04/02 04:42:21;;;;;;;5.95;3.60;;;6.50;65.80;;;;;;5091559;28;20124;-84
2022/04/02 04:44:47;;;;;;;5.82;3.80;;;6.60;66.50;;;;;;5093301;28;20027;-84
2022/04/02 04:47:13;;;;;;;5.00;3.50;;;6.60;66.50;;;;;;5093250;28;20016;-84
2022/04/02 04:49:39;;;;;;;5.80;3.50;;;6.50;66.50;;;;;;5091340;28;20119;-83
2022/04/02 04:52:05;;;;;;;4.95;3.30;;;6.50;66.40;;;;;;5091420;28;20112;-84
2022/04/02 04:54:31;;;;;;;5.00;3.42;;;6.60;66.70;;;;;;5091394;28;20032;-84
2022/04/02 04:56:57;;;;;;;5.10;3.35;;;6.60;66.60;;;;;;5091840;28;20035;-84
2022/04/02 04:59:23;;;;;;;4.80;3.42;;;6.50;66.90;;;;;;5094540;28;20024;-84
2022/04/02 05:01:48;;;;;;;5.50;3.42;;;6.50;66.30;;;;;;5091184;28;20039;-84
2022/04/02 05:04:14;;;;;;;6.57;4.38;;;6.50;66.30;;;;;;5091178;28;20028;-84
2022/04/02 05:06:43;;;;;;;4.95;3.33;;;6.50;67.10;;;;;;5091390;28;20028;-86
2022/04/02 05:09:10;;;;;;;5.63;3.70;;;6.50;66.80;;;;;;5090984;28;20032;-84
2022/04/02 05:11:36;;;;;;;4.90;3.40;;;6.50;66.40;;;;;;5093509;28;20397;-85
2022/04/02 05:14:01;;;;;;;6.07;3.83;;;6.50;66.60;;;;;;5091730;28;20020;-84
2022/04/02 05:16:27;;;;;;;5.32;3.50;;;6.50;66.80;;;;;;5092502;28;20032;-84
2022/04/02 05:18:54;;;;;;;5.68;3.10;;;6.50;66.90;;;;;;5090991;28;20469;-84
2022/04/02 05:21:20;;;;;;;5.63;3.03;;;6.50;66.80;;;;;;5090974;28;20047;-84
2022/04/02 05:23:45;;;;;;;5.90;4.00;;;6.50;66.90;;;;;;5092378;28;20473;-84
2022/04/02 05:26:11;;;;;;;5.10;3.90;;;6.50;67.60;;;;;;5092743;28;20035;-84
2022/04/02 05:28:37;;;;;;;6.03;3.40;;;6.50;67.40;;;;;;5090636;28;20027;-84
2022/04/02 05:31:03;;;;;;;5.00;3.25;;;6.60;67.60;;;;;;5090703;28;20036;-84
2022/04/02 05:33:30;;;;;;;6.20;3.58;;;6.60;67.40;;;;;;5090541;28;20560;-84
2022/04/02 05:35:57;;;;;;;5.72;3.60;;;6.60;67.10;;;;;;5091247;28;20048;-84
2022/04/02 05:38:23;;;;;;;7.15;3.55;;;6.60;66.50;;;;;;5093590;28;20085;-84
2022/04/02 05:40:49;;;;;;;4.78;3.30;;;6.50;66.90;;;;;;5090476;28;20039;-84
2022/04/02 05:43:14;;;;;;;4.93;3.20;;;6.50;67.00;;;;;;5090249;28;20028;-85
2022/04/02 05:45:40;;;;;;;5.07;3.47;;;6.50;67.10;;;;;;5090843;28;20032;-84
2022/04/02 05:48:06;;;;;;;6.55;3.63;;;6.60;67.40;;;;;;5090525;28;20100;-85
2022/04/02 05:50:32;;;;;;;5.32;3.40;;;6.60;67.30;;;;;;5093723;28;20505;-84
2022/04/02 05:52:58;;;;;;;5.15;3.17;;;6.60;67.60;;;;;;5090574;28;20103;-84
2022/04/02 05:55:24;;;;;;;6.43;3.65;;;6.60;67.40;;;;;;5089969;28;20036;-84
2022/04/02 05:57:49;;;;;;;6.05;4.00;;;6.70;67.60;;;;;;5071899;28;20504;-84
2022/04/02 06:00:17;;;;;;;6.25;4.05;;;6.60;67.20;;;;;;5090349;28;20060;-84
2022/04/02 06:02:44;;;;;;;5.97;3.63;;;6.60;67.10;;;;;;5092677;28;20027;-83
2022/04/02 06:05:12;;;;;;;7.03;3.95;;;6.60;66.90;;;;;;5091395;28;20031;-85
2022/04/02 06:07:37;;;;;;;6.78;4.15;;;6.70;66.70;;;;;;5089626;28;20028;-84
2022/04/02 06:10:04;;;;;;;5.35;3.53;;;6.70;66.90;;;;;;5089899;28;20046;-84
2022/04/02 06:12:31;;;;;;;6.38;3.78;;;6.80;67.00;;;;;;5089868;28;20378;-83
2022/04/02 06:14:58;;;;;;;7.72;3.85;;;6.80;66.90;;;;;;5090574;28;20035;-84
2022/04/02 06:17:25;;;;;;;6.97;4.00;;;6.90;66.40;;;;;;5093383;28;20035;-83
2022/04/02 06:19:51;;;;;;;6.30;4.40;;;6.90;66.00;;;;;;5089707;28;20101;-84
2022/04/02 06:22:17;;;;;;;7.20;4.18;;;6.90;66.50;;;;;;5089436;28;20031;-84
2022/04/02 06:24:42;;;;;;;6.00;4.05;;;6.90;67.30;;;;;;5088727;28;20028;-84
2022/04/02 06:27:08;;;;;;;5.95;3.90;;;6.90;66.40;;;;;;5089996;28;20029;-84
2022/04/02 06:29:34;;;;;;;6.05;3.90;;;7.00;66.60;;;;;;5092276;28;20024;-84
2022/04/02 06:32:00;;;;;;;5.82;4.10;;;7.00;65.30;;;;;;5090208;28;20405;-84
2022/04/02 06:34:25;;;;;;;7.25;3.95;;;7.00;66.10;;;;;;5071683;28;20020;-81
2022/04/02 06:36:51;;;;;;;6.03;3.90;;;7.00;66.40;;;;;;5089070;28;20643;-76
2022/04/02 06:39:17;;;;;;;6.28;4.45;;;6.90;65.80;;;;;;5089467;28;20107;-84
2022/04/02 06:41:43;;;;;;;6.22;4.65;;;7.00;66.70;;;;;;5091614;28;20055;-83
2022/04/02 06:44:09;;;;;;;5.72;3.95;;;7.00;66.90;;;;;;5090518;28;20028;-81
2022/04/02 06:46:37;;;;;;;6.97;4.10;;;7.20;68.20;;;;;;5089102;28;20069;-83
2022/04/02 06:49:03;;;;;;;5.30;3.80;;;7.30;67.10;;;;;;5089195;28;20111;-82
2022/04/02 06:51:29;;;;;;;6.03;4.18;;;7.30;65.60;;;;;;5089204;28;20472;-81
2022/04/02 06:53:55;;;;;;;5.80;3.92;;;7.30;63.20;;;;;;5089649;28;20059;-84
2022/04/02 06:56:21;;;;;;;5.90;4.07;;;7.30;63.30;;;;;;5091845;28;20168;-83
2022/04/02 06:58:47;;;;;;;6.80;4.30;;;7.40;63.20;;;;;;5104495;28;20123;-84
2022/04/02 07:01:13;;;;;;;6.00;4.13;;;7.50;62.90;;;;;;5088921;28;20103;-84
2022/04/02 07:03:38;;;;;;;5.50;3.80;;;7.60;62.90;;;;;;5088818;28;20023;-83
2022/04/02 07:06:04;;;;;;;5.93;3.90;;;7.70;62.60;;;;;;5088782;28;20038;-84
2022/04/02 07:08:30;;;;;;;6.30;4.25;;;7.70;62.10;;;;;;5092172;28;20499;-84
2022/04/02 07:10:57;;;;;;;6.13;4.28;;;7.60;61.60;;;;;;5089504;28;20123;-84
2022/04/02 07:13:24;;;;;;;5.72;4.35;;;7.60;62.40;;;;;;5090050;28;20023;-83
2022/04/02 07:15:49;;;;;;;7.60;4.40;;;7.50;61.30;;;;;;5088603;28;20603;-83
2022/04/02 07:18:15;;;;;;;6.03;4.13;;;7.70;62.10;;;;;;5088541;28;20347;-84
2022/04/02 07:20:41;;;;;;;5.85;4.22;;;7.70;61.10;;;;;;5091192;28;20024;-83
2022/04/02 07:23:09;;;;;;;8.85;4.57;;;7.70;60.60;;;;;;5089713;28;20028;-82
2022/04/02 07:25:39;;;;;;;5.88;4.28;;;7.70;61.10;;;;;;5088555;28;20072;-85
2022/04/02 07:28:06;;;;;;;7.30;4.68;;;7.70;60.90;;;;;;5104557;28;20481;-85
2022/04/02 07:30:33;;;;;;;6.00;4.20;;;7.80;61.00;;;;;;5088422;28;20539;-84
2022/04/02 07:32:59;;;;;;;7.53;4.25;;;7.70;61.80;;;;;;5088640;28;20549;-85
2022/04/02 07:35:27;;;;;;;6.70;4.63;;;7.80;62.70;;;;;;5087079;28;20040;-80
2022/04/02 07:38:01;;;;;;;7.38;4.82;;;7.80;61.40;;;;;;5088406;28;20035;-79
2022/04/02 07:40:36;;;;;;;6.90;4.97;;;7.90;61.80;;;;;;5089229;28;20039;-79
2022/04/02 07:43:25;;;;;;;7.13;4.88;;;7.90;61.90;;;;;;5088167;28;20032;-80
2022/04/02 07:46:04;;;;;;;6.35;5.07;;;7.80;61.40;;;;;;5088113;28;20031;-79
2022/04/02 07:48:30;;;;;;;8.32;4.80;;;7.90;61.00;;;;;;5087863;28;20023;-73
2022/04/02 07:50:58;;;;;;;6.32;4.60;;;8.00;61.50;;;;;;5088493;28;20059;-72
2022/04/02 07:53:28;;;;;;;6.93;4.53;;;8.20;61.50;;;;;;5091127;28;20012;-72
2022/04/02 07:55:57;;;;;;;6.07;4.60;;;8.20;60.90;;;;;;5087496;28;20042;-72
2022/04/02 07:58:28;;;;;;;6.93;4.90;;;8.30;60.40;;;;;;5088320;28;20067;-72
2022/04/02 08:00:57;;;;;;;8.13;4.80;;;8.40;61.00;;;;;;5088030;28;20500;-72
2022/04/02 08:03:28;;;;;;;7.53;4.45;;;8.40;62.40;;;;;;5087921;28;20133;-72
2022/04/02 08:05:55;;;;;;;7.35;4.45;;;8.40;61.50;;;;;;5089324;28;20094;-72
2022/04/02 08:08:24;;;;;;;7.15;4.63;;;8.40;61.50;;;;;;5090731;28;20028;-72
2022/04/02 08:10:55;;;;;;;6.50;4.75;;;8.40;61.20;;;;;;5087931;28;20085;-72
2022/04/02 08:13:21;;;;;;;6.65;4.57;;;8.40;60.90;;;;;;5088253;28;20032;-73
2022/04/02 08:15:51;;;;;;;6.85;4.78;;;8.50;61.30;;;;;;5087302;28;20032;-72
2022/04/02 08:18:22;;;;;;;7.20;4.95;;;8.50;61.30;;;;;;5087680;28;20028;-72
2022/04/02 08:20:50;;;;;;;6.35;4.78;;;8.60;61.50;;;;;;5080687;28;20033;-73
2022/04/02 08:23:17;;;;;;;6.50;4.97;;;8.70;60.90;;;;;;5102394;28;20114;-74
2022/04/02 08:26:13;;;;;;;7.50;5.20;;;8.70;61.10;;;;;;5090298;28;20135;-73
2022/04/02 08:29:05;;;;;;;6.72;5.18;;;8.70;60.10;;;;;;5088692;28;20038;-75
2022/04/02 08:32:10;;;;;;;7.60;4.95;;;8.80;60.40;;;;;;5024001;28;20065;-74
2022/04/02 08:34:59;;;;;;;6.53;5.03;;;8.90;60.60;;;;;;4950346;28;20078;-74
2022/04/02 08:37:29;;;;;;;7.43;4.55;;;9.00;61.30;;;;;;4948001;28;20078;-74
2022/04/02 08:40:03;;;;;;;7.68;4.20;;;9.10;59.90;;;;;;4948428;28;20077;-74
2022/04/02 08:42:58;;;;;;;;;;;9.20;58.60;;;;;;4948338;28;20093;-74
2022/04/02 08:45:28;;;;;;;;;;;9.30;58.70;;;;;;4946922;28;19933;-74
2022/04/02 08:48:19;;;;;;;5.20;3.85;;;9.50;58.60;;;;;;4946177;28;19946;-74
2022/04/02 08:50:54;;;;;;;5.47;3.85;;;9.50;57.30;;;;;;4963710;28;20186;-74
2022/04/02 08:53:22;;;;;;;10.43;4.22;;;9.70;58.40;;;;;;4953364;28;20074;-74
2022/04/02 08:56:10;;;;;;;7.03;4.20;;;9.60;58.00;;;;;;4951194;28;20055;-74
2022/04/02 08:58:44;;;;;;;8.60;4.13;;;9.60;58.20;;;;;;4952883;28;20170;-73
2022/04/02 09:01:10;;;;;;;;;;;9.60;57.60;;;;;;4945507;28;20039;-74
2022/04/02 09:03:48;;;;;;;5.25;3.95;;;9.70;58.90;;;;;;4951676;28;19906;-74
2022/04/02 09:06:42;;;;;;;7.70;3.78;;;9.60;57.50;;;;;;4948882;28;20546;-74
2022/04/02 09:09:20;;;;;;;6.35;4.03;;;9.50;57.70;;;;;;4998864;28;20482;-74
2022/04/02 09:11:56;;;;;;;5.32;3.58;;;9.50;57.70;;;;;;5023113;28;20061;-74
2022/04/02 09:14:50;;;;;;;6.35;3.70;;;9.50;58.30;;;;;;5054734;28;20029;-74
2022/04/02 09:17:38;;;;;;;9.55;3.90;;;9.50;57.40;;;;;;5054085;28;20098;-74
2022/04/02 09:20:26;;;;;;;5.43;3.70;;;9.40;57.60;;;;;;5054232;28;20072;-74
2022/04/02 09:22:57;;;;;;;7.85;3.95;;;9.40;58.00;;;;;;5051223;28;20037;-74
2022/04/02 09:25:31;;;;;;;6.13;4.10;;;9.40;58.20;;;;;;5051387;28;20494;-75
2022/04/02 09:27:57;;;;;;;;;;;9.30;57.00;;;;;;5052015;28;20090;-74
2022/04/02 09:30:47;;;;;;;6.43;3.75;;;9.30;57.70;;;;;;5051034;28;20014;-74
2022/04/02 09:33:31;;;;;;;5.15;3.70;;;9.30;58.30;;;;;;5038651;28;20045;-74
2022/04/02 09:36:21;;;;;;;6.38;3.95;;;9.30;58.20;;;;;;5051009;28;20049;-73
2022/04/02 09:39:02;;;;;;;6.45;4.30;;;9.30;57.20;;;;;;5050766;28;20101;-74
2022/04/02 09:41:36;;;;;;;7.03;4.00;;;9.30;57.30;;;;;;5049786;28;20056;-74
2022/04/02 09:44:11;;;;;;;5.97;3.72;;;9.30;57.70;;;;;;5052256;28;20033;-75
2022/04/02 09:46:52;;;;;;;6.80;3.75;;;9.30;57.90;;;;;;5049471;28;20033;-74
2022/04/02 09:49:48;;;;;;;9.02;4.07;;;9.40;58.70;;;;;;5051440;28;20401;-74
2022/04/02 09:52:21;;;;;;;10.68;3.78;;;9.40;57.90;;;;;;5090350;28;20106;-74
2022/04/02 09:55:03;;;;;;;7.70;3.90;;;9.30;57.70;;;;;;5090054;28;20047;-74
2022/04/02 09:57:38;;;;;;;6.97;4.00;;;9.30;57.50;;;;;;5090054;28;20036;-73
2022/04/02 10:00:07;;;;;;;8.95;3.78;;;9.30;56.80;;;;;;5073927;28;20119;-74
2022/04/02 10:03:04;;;;;;;5.45;3.80;;;9.40;57.70;;;;;;5092024;28;20485;-74
2022/04/02 10:05:46;;;;;;;5.10;3.50;;;9.40;57.80;;;;;;5089191;28;20055;-75
2022/04/02 10:08:31;;;;;;;5.57;3.83;;;9.40;56.80;;;;;;5091790;28;20046;-74
2022/04/02 10:11:00;;;;;;;5.30;3.58;;;9.40;57.30;;;;;;5091328;28;20050;-74
2022/04/02 10:13:30;;;;;;;6.32;3.65;;;9.40;57.10;;;;;;5088110;28;20035;-73
2022/04/02 10:15:58;;;;;;;5.70;4.13;;;9.50;56.80;;;;;;5089064;28;20433;-73
2022/04/02 10:18:25;;;;;;;5.28;3.70;;;9.40;56.90;;;;;;5089840;28;20073;-73
2022/04/02 10:20:52;;;;;;;5.85;3.70;;;9.40;56.40;;;;;;5090431;28;20102;-72
2022/04/02 10:23:23;;;;;;;8.13;3.90;;;9.50;56.90;;;;;;5091310;28;20027;-73
2022/04/02 10:26:12;;;;;;;6.53;3.45;;;9.60;56.70;;;;;;5088795;28;20035;-74
2022/04/02 10:28:49;;;;;;;5.63;3.80;;;9.70;57.00;;;;;;5088507;28;20457;-73
2022/04/02 10:31:35;;;;;;;7.78;3.97;;;9.80;57.80;;;;;;5088469;28;20541;-71
2022/04/02 10:34:12;;;;;;;5.68;3.72;;;9.90;56.30;;;;;;5088524;28;20032;-73
2022/04/02 10:36:50;;;;;;;5.68;3.63;;;9.90;56.80;;;;;;5088653;28;20113;-75
2022/04/02 10:39:17;;;;;;;5.38;3.65;;;10.00;56.40;;;;;;5087759;28;20029;-74
2022/04/02 10:41:44;;;;;;;5.15;3.65;;;10.00;55.70;;;;;;5091527;28;20024;-73
2022/04/02 10:44:18;;;;;;;6.13;4.15;;;10.20;56.50;;;;;;5089479;28;20445;-73
2022/04/02 10:46:44;;;;;;;;;;;10.20;56.00;;;;;;5089013;28;20034;-72
2022/04/02 10:49:16;;;;;;;5.70;3.80;;;10.20;55.70;;;;;;5088727;28;19991;-73
2022/04/02 10:51:43;;;;;;;6.53;3.72;;;10.10;55.40;;;;;;5089293;28;20032;-73
2022/04/02 10:54:12;;;;;;;5.85;3.67;;;10.10;55.90;;;;;;5087928;28;20028;-73
2022/04/02 10:56:44;;;;;;;8.20;3.78;;;10.20;56.30;;;;;;5091134;28;20036;-73
2022/04/02 10:59:13;;;;;;;5.25;3.92;;;10.30;55.90;;;;;;5088387;28;20052;-73
2022/04/02 11:01:44;;;;;;;8.02;4.28;;;10.30;56.10;;;;;;5088692;28;20020;-73
2022/04/02 11:04:30;;;;;;;6.60;4.07;;;10.30;59.20;;;;;;5090371;28;20055;-76
2022/04/02 11:06:57;;;;;;;5.72;4.07;;;10.40;59.20;;;;;;5090259;28;20027;-75
2022/04/02 11:09:27;;;;;;;6.68;4.00;;;10.40;57.30;;;;;;5087997;28;20081;-75
2022/04/02 11:11:53;;;;;;;5.60;3.47;;;10.30;59.70;;;;;;5088785;28;20458;-75
2022/04/02 11:14:20;;;;;;;6.82;4.22;;;10.30;57.70;;;;;;5090947;28;20031;-75
2022/04/02 11:16:46;;;;;;;5.03;3.70;;;10.20;55.70;;;;;;5088409;28;20081;-75
2022/04/02 11:22:06;;;;;;;5.57;4.18;;;10.30;56.20;;;;;;5088425;28;20047;-76
2022/04/02 11:25:14;;;;;;;5.57;3.70;;;10.40;55.10;;;;;;5088228;28;20028;-76
2022/04/02 11:27:43;;;;;;;6.47;3.60;;;10.40;55.50;;;;;;5034684;28;20029;-77
2022/04/02 11:30:10;;;;;;;5.78;3.72;;;10.40;55.80;;;;;;5045257;28;20033;-75
2022/04/02 11:32:44;;;;;;;5.00;3.30;;;10.30;55.40;;;;;;5047641;28;20029;-75
2022/04/02 11:35:14;;;;;;;;;;;10.30;55.20;;;;;;5047465;28;20053;-75
2022/04/02 11:38:06;;;;;;;6.90;3.95;;;10.30;54.80;;;;;;5045677;28;20440;-76
2022/04/02 11:40:38;;;;;;;5.90;3.85;;;10.30;55.90;;;;;;5035004;28;20036;-76
2022/04/02 11:43:03;;;;;;;5.50;3.85;;;10.40;55.10;;;;;;5045362;28;20037;-75
2022/04/02 11:45:30;;;;;;;5.72;3.60;;;10.30;55.50;;;;;;5031318;28;20055;-76
2022/04/02 11:48:12;;;;;;;5.10;3.60;;;10.40;56.30;;;;;;5045526;28;20040;-74
2022/04/02 11:50:45;;;;;;;5.47;3.63;;;10.40;56.90;;;;;;5044914;28;20533;-74
2022/04/02 11:53:13;;;;;;;5.97;3.55;;;10.40;55.30;;;;;;5046599;28;20541;-74
2022/04/02 11:55:41;;;;;;;5.35;3.60;;;10.40;55.70;;;;;;5045128;28;20049;-74
2022/04/02 11:58:09;;;;;;;5.93;3.30;;;10.30;55.50;;;;;;5045483;28;20108;-73
2022/04/02 12:00:40;;;;;;;5.40;3.60;;;10.40;56.20;;;;;;5045035;28;20040;-72
2022/04/02 12:03:21;;;;;;;5.95;3.20;;;10.30;55.90;;;;;;5047375;28;20018;-72
2022/04/02 12:05:48;;;;;;;5.10;3.25;;;10.30;56.40;;;;;;5049258;28;20060;-73
2022/04/02 12:08:30;;;;;;;4.90;3.00;;;10.20;56.10;;;;;;5048233;28;20378;-74
2022/04/02 12:10:57;;;;;;;5.20;2.80;;;10.30;56.40;;;;;;5049014;28;20032;-73
2022/04/02 12:13:23;;;;;;;4.70;2.97;;;10.40;55.70;;;;;;5047518;28;20025;-73
2022/04/02 12:16:00;;;;;;;5.57;3.15;;;10.40;56.40;;;;;;5047336;28;20457;-73
2022/04/02 12:18:26;;;;;;;4.90;3.03;;;10.50;56.00;;;;;;5047171;28;20390;-73
2022/04/02 12:21:02;;;;;;;5.00;3.28;;;10.60;57.40;;;;;;5048441;28;20037;-72
2022/04/02 12:23:29;;;;;;;4.97;3.08;;;10.50;56.00;;;;;;5048354;28;20029;-72
2022/04/02 12:25:57;;;;;;;6.55;3.10;;;10.50;57.10;;;;;;5051240;28;20568;-72
2022/04/02 12:28:23;;;;;;;5.43;3.30;;;10.50;56.00;;;;;;5051699;28;20075;-73
2022/04/02 12:30:52;;;;;;;4.05;3.05;;;10.50;56.40;;;;;;5050516;28;20032;-73
2022/04/02 12:33:23;;;;;;;5.45;3.10;;;10.60;56.20;;;;;;5051384;28;20041;-73
2022/04/02 12:36:09;;;;;;;5.63;3.03;;;10.60;55.40;;;;;;5052626;28;20125;-73
2022/04/02 12:38:37;;;;;;;5.10;3.38;;;10.50;55.40;;;;;;5050916;28;20051;-73
2022/04/02 12:41:05;;;;;;;4.63;2.92;;;10.50;55.40;;;;;;5053662;28;20033;-73
2022/04/02 12:43:37;;;;;;;6.22;3.40;;;10.50;55.90;;;;;;5050919;28;20017;-72
2022/04/02 12:46:03;;;;;;;5.70;3.00;;;10.50;56.00;;;;;;5050918;28;20552;-73
2022/04/02 12:48:43;;;;;;;7.28;3.20;;;10.60;56.50;;;;;;5050832;28;20017;-73
2022/04/02 12:51:13;;;;;;;5.55;3.30;;;10.80;56.80;;;;;;5067122;28;20050;-73
2022/04/02 12:53:44;;;;;;;4.10;3.00;;;11.00;55.80;;;;;;5092893;28;20059;-76
2022/04/02 12:56:17;;;;;;;5.00;3.42;;;11.00;54.10;;;;;;5092550;28;20040;-73
2022/04/02 12:58:46;;;;;;;6.47;3.47;;;11.00;54.70;;;;;;5091739;28;20027;-73
2022/04/02 13:01:25;;;;;;;6.45;3.50;;;11.10;54.00;;;;;;5091020;28;20020;-72
2022/04/02 13:04:10;;;;;;;4.80;3.20;;;11.10;54.70;;;;;;5092375;28;20393;-72
2022/04/02 13:06:42;;;;;;;4.55;3.30;;;11.00;54.70;;;;;;5090746;28;20489;-73
2022/04/02 13:09:19;;;;;;;5.05;3.28;;;11.10;55.20;;;;;;5091369;28;20020;-74
2022/04/02 13:11:56;;;;;;;4.97;3.50;;;11.20;54.70;;;;;;5093564;28;20081;-73
2022/04/02 13:14:22;;;;;;;5.03;3.22;;;11.10;54.40;;;;;;5093383;28;20055;-74